createdAt,value
2018-04-29T00:02:22.003Z,18.93
2018-04-29T00:04:49.505Z,16.03
2018-04-29T00:07:17.028Z,17.30
2018-04-29T00:09:44.678Z,16.97
2018-04-29T00:12:12.204Z,14.57
2018-04-29T00:14:39.813Z,15.57
2018-04-29T00:17:07.927Z,14.80
2018-04-29T00:19:35.469Z,11.43
2018-04-29T00:22:03.213Z,13.00
2018-04-29T00:24:30.722Z,15.20
2018-04-29T00:26:58.239Z,11.73
2018-04-29T00:29:25.983Z,11.53
2018-04-29T00:31:53.474Z,10.90
2018-04-29T00:34:21.116Z,17.23
2018-04-29T00:36:48.643Z,15.30
2018-04-29T00:39:17.562Z,18.67
2018-04-29T00:41:45.326Z,17.60
2018-04-29T00:44:13.094Z,12.83
2018-04-29T00:46:40.596Z,11.27
2018-04-29T00:49:08.317Z,20.40
2018-04-29T00:51:47.750Z,12.40
2018-04-29T00:54:15.280Z,19.50
2018-04-29T00:56:42.794Z,11.63
2018-04-29T00:59:10.330Z,17.87
2018-04-29T01:01:37.890Z,13.30
2018-04-29T01:04:05.424Z,15.43
2018-04-29T01:06:32.926Z,12.00
2018-04-29T01:09:00.571Z,15.03
2018-04-29T01:11:28.070Z,15.33
2018-04-29T01:13:55.609Z,13.93
2018-04-29T01:16:23.116Z,15.07
2018-04-29T01:18:50.674Z,18.10
2018-04-29T01:21:19.085Z,17.57
2018-04-29T01:23:47.399Z,14.67
2018-04-29T01:26:14.912Z,17.07
2018-04-29T01:28:42.430Z,19.10
2018-04-29T01:31:10.130Z,9.60
2018-04-29T01:33:37.645Z,14.60
2018-04-29T01:36:05.159Z,13.20
2018-04-29T01:38:32.777Z,17.13
2018-04-29T01:41:00.281Z,13.23
2018-04-29T01:43:28.024Z,11.57
2018-04-29T01:45:55.791Z,13.53
2018-04-29T01:48:23.548Z,16.90
2018-04-29T01:50:51.049Z,17.43
2018-04-29T01:53:19.305Z,11.50
2018-04-29T01:55:47.623Z,14.27
2018-04-29T01:58:15.129Z,12.97
2018-04-29T02:00:43.405Z,14.67
2018-04-29T02:03:11.053Z,20.23
2018-04-29T02:05:38.813Z,11.70
2018-04-29T02:08:06.339Z,13.83
2018-04-29T02:10:34.222Z,15.17
2018-04-29T02:13:01.773Z,20.80
2018-04-29T02:15:29.282Z,18.40
2018-04-29T02:17:56.784Z,13.70
2018-04-29T02:20:24.902Z,12.53
2018-04-29T02:22:52.408Z,13.80
2018-04-29T02:25:19.999Z,16.47
2018-04-29T02:27:47.766Z,13.60
2018-04-29T02:30:15.405Z,15.30
2018-04-29T02:32:42.989Z,14.60
2018-04-29T02:35:10.503Z,14.23
2018-04-29T02:37:38.018Z,23.37
2018-04-29T02:40:05.542Z,13.57
2018-04-29T02:42:33.118Z,17.37
2018-04-29T02:45:00.881Z,15.73
2018-04-29T02:47:28.954Z,18.77
2018-04-29T02:49:56.492Z,13.20
2018-04-29T02:52:23.994Z,19.00
2018-04-29T02:54:51.631Z,18.03
2018-04-29T02:57:19.135Z,17.00
2018-04-29T02:59:46.854Z,21.53
2018-04-29T03:02:14.646Z,17.03
2018-04-29T03:04:42.387Z,13.10
2018-04-29T03:07:09.882Z,15.20
2018-04-29T03:09:37.422Z,17.53
2018-04-29T03:12:04.944Z,20.10
2018-04-29T03:14:32.521Z,15.17
2018-04-29T03:17:00.046Z,19.47
2018-04-29T03:19:27.742Z,16.63
2018-04-29T03:21:55.263Z,18.63
2018-04-29T03:24:22.781Z,14.50
2018-04-29T03:26:50.410Z,19.20
2018-04-29T03:29:17.957Z,20.63
2018-04-29T03:31:45.473Z,16.83
2018-04-29T03:34:12.990Z,18.90
2018-04-29T03:36:40.514Z,25.20
2018-04-29T03:39:08.046Z,18.00
2018-04-29T03:41:35.771Z,16.50
2018-04-29T03:44:03.539Z,18.63
2018-04-29T03:46:31.282Z,20.43
2018-04-29T03:48:58.820Z,16.33
2018-04-29T03:51:26.817Z,14.97
2018-04-29T03:53:54.582Z,22.70
2018-04-29T03:56:22.346Z,21.80
2018-04-29T03:59:01.788Z,18.40
2018-04-29T04:01:51.280Z,18.93
2018-04-29T04:04:09.289Z,20.23
2018-04-29T04:06:36.810Z,19.97
2018-04-29T04:09:04.326Z,24.30
2018-04-29T04:11:31.966Z,24.30
2018-04-29T04:13:59.487Z,23.90
2018-04-29T04:16:26.993Z,21.33
2018-04-29T04:18:54.513Z,24.67
2018-04-29T04:21:22.094Z,22.27
2018-04-29T04:23:49.618Z,23.37
2018-04-29T04:26:17.119Z,23.73
2018-04-29T04:28:44.618Z,21.67
2018-04-29T04:31:12.221Z,22.83
2018-04-29T04:33:40.266Z,20.60
2018-04-29T04:36:07.894Z,21.63
2018-04-29T04:38:36.173Z,31.90
2018-04-29T04:41:03.874Z,25.33
2018-04-29T04:43:31.664Z,25.20
2018-04-29T04:45:59.437Z,23.33
2018-04-29T04:48:26.968Z,19.70
2018-04-29T04:50:54.483Z,30.00
2018-04-29T04:53:22.752Z,27.70
2018-04-29T04:55:50.270Z,25.10
2018-04-29T04:58:17.934Z,25.80
2018-04-29T05:00:45.450Z,23.03
2018-04-29T05:03:12.958Z,21.13
2018-04-29T05:05:40.475Z,26.63
2018-04-29T05:08:08.068Z,22.80
2018-04-29T05:10:35.608Z,22.73
2018-04-29T05:13:03.123Z,25.37
2018-04-29T05:15:31.666Z,25.13
2018-04-29T05:17:59.179Z,25.10
2018-04-29T05:20:27.194Z,23.63
2018-04-29T05:22:54.701Z,22.53
2018-04-29T05:25:22.415Z,26.23
2018-04-29T05:27:49.921Z,27.37
2018-04-29T05:30:17.633Z,30.73
2018-04-29T05:32:45.168Z,26.97
2018-04-29T05:35:12.854Z,29.77
2018-04-29T05:37:40.365Z,25.60
2018-04-29T05:40:08.077Z,28.87
2018-04-29T05:42:35.850Z,27.53
2018-04-29T05:45:03.374Z,22.80
2018-04-29T05:47:31.064Z,39.33
2018-04-29T05:49:58.577Z,27.63
2018-04-29T05:52:26.286Z,24.27
2018-04-29T05:54:53.790Z,26.50
2018-04-29T05:57:21.312Z,26.27
2018-04-29T05:59:48.967Z,24.47
2018-04-29T06:02:16.723Z,24.60
2018-04-29T06:04:44.224Z,20.40
2018-04-29T06:07:12.555Z,20.37
2018-04-29T06:09:40.062Z,27.37
2018-04-29T06:12:08.102Z,20.13
2018-04-29T06:14:35.722Z,19.20
2018-04-29T06:17:04.339Z,24.30
2018-04-29T06:19:31.991Z,20.27
2018-04-29T06:21:59.506Z,19.60
2018-04-29T06:24:27.015Z,19.37
2018-04-29T06:26:54.539Z,18.13
2018-04-29T06:29:22.041Z,18.43
2018-04-29T06:31:49.572Z,15.57
2018-04-29T06:34:17.323Z,18.43
2018-04-29T06:36:45.106Z,21.77
2018-04-29T06:39:12.739Z,20.70
2018-04-29T06:41:40.248Z,18.60
2018-04-29T06:44:07.758Z,16.50
2018-04-29T06:46:35.289Z,22.63
2018-04-29T06:49:02.817Z,20.10
2018-04-29T06:51:30.339Z,20.50
2018-04-29T06:53:57.916Z,22.47
2018-04-29T06:56:25.434Z,16.33
2018-04-29T06:58:52.958Z,20.93
2018-04-29T07:01:20.489Z,21.83
2018-04-29T07:03:48.055Z,20.17
2018-04-29T07:06:15.582Z,16.33
2018-04-29T07:08:43.279Z,18.03
2018-04-29T07:11:11.026Z,17.37
2018-04-29T07:13:38.797Z,20.20
2018-04-29T07:16:06.314Z,25.10
2018-04-29T07:18:33.818Z,21.60
2018-04-29T07:21:01.343Z,16.63
2018-04-29T07:23:28.926Z,18.90
2018-04-29T07:25:56.545Z,16.67
2018-04-29T07:28:24.814Z,18.43
2018-04-29T07:30:52.488Z,16.90
2018-04-29T07:33:20.285Z,19.80
2018-04-29T07:35:47.809Z,16.83
2018-04-29T07:38:15.487Z,20.23
2018-04-29T07:40:42.997Z,18.97
2018-04-29T07:43:10.514Z,17.80
2018-04-29T07:45:38.024Z,19.63
2018-04-29T07:48:06.353Z,13.60
2018-04-29T07:50:33.870Z,16.80
2018-04-29T07:53:01.387Z,16.40
2018-04-29T07:55:29.011Z,19.70
2018-04-29T07:57:56.677Z,14.93
2018-04-29T08:00:24.473Z,21.40
2018-04-29T08:02:52.230Z,14.30
2018-04-29T08:05:19.729Z,17.23
2018-04-29T08:07:47.421Z,15.50
2018-04-29T08:10:15.211Z,16.00
2018-04-29T08:12:42.732Z,11.53
2018-04-29T08:15:10.247Z,18.43
2018-04-29T08:17:37.770Z,18.00
2018-04-29T08:20:05.336Z,24.13
2018-04-29T08:22:32.877Z,14.13
2018-04-29T08:25:00.538Z,18.97
2018-04-29T08:27:28.061Z,17.23
2018-04-29T08:29:55.579Z,17.00
2018-04-29T08:32:23.101Z,18.33
2018-04-29T08:34:50.690Z,25.00
2018-04-29T08:37:18.202Z,16.60
2018-04-29T08:39:45.910Z,14.73
2018-04-29T08:42:13.430Z,16.00
2018-04-29T08:44:41.105Z,15.07
2018-04-29T08:47:08.905Z,16.70
2018-04-29T08:49:36.429Z,17.63
2018-04-29T08:52:04.026Z,15.73
2018-04-29T08:54:31.553Z,18.50
2018-04-29T08:56:59.347Z,17.60
2018-04-29T08:59:26.864Z,17.10
2018-04-29T09:01:54.381Z,18.03
2018-04-29T09:04:21.890Z,16.30
2018-04-29T09:06:49.470Z,12.80
2018-04-29T09:09:17.411Z,18.40
2018-04-29T09:11:44.999Z,18.87
2018-04-29T09:14:12.632Z,16.67
2018-04-29T09:16:40.123Z,17.40
2018-04-29T09:19:07.682Z,13.10
2018-04-29T09:21:35.458Z,11.40
2018-04-29T09:24:03.201Z,19.20
2018-04-29T09:26:30.975Z,18.73
2018-04-29T09:28:58.646Z,19.27
2018-04-29T09:31:26.158Z,11.47
2018-04-29T09:33:53.665Z,14.33
2018-04-29T09:36:21.372Z,11.13
2018-04-29T09:38:48.894Z,18.50
2018-04-29T09:41:16.595Z,19.63
2018-04-29T09:43:44.245Z,19.63
2018-04-29T09:46:11.858Z,33.13
2018-04-29T09:48:39.380Z,19.63
2018-04-29T09:51:07.067Z,23.67
2018-04-29T09:53:34.694Z,15.87
2018-04-29T09:56:02.231Z,13.77
2018-04-29T09:58:29.766Z,15.03
2018-04-29T10:00:57.331Z,24.37
2018-04-29T10:03:24.782Z,15.00
2018-04-29T10:05:53.062Z,12.60
2018-04-29T10:08:20.577Z,14.67
2018-04-29T10:10:48.273Z,15.13
2018-04-29T10:13:16.024Z,15.80
2018-04-29T10:15:44.058Z,16.83
2018-04-29T10:18:11.574Z,45.83
2018-04-29T10:20:39.314Z,63.30
2018-04-29T10:23:06.836Z,52.00
2018-04-29T10:25:34.538Z,31.93
2018-04-29T10:28:02.074Z,33.70
2018-04-29T10:30:29.598Z,26.07
2018-04-29T10:32:57.113Z,34.57
2018-04-29T10:35:24.634Z,44.67
2018-04-29T10:37:52.151Z,23.90
2018-04-29T10:40:19.664Z,20.80
2018-04-29T10:42:47.188Z,26.37
2018-04-29T10:45:14.772Z,20.07
2018-04-29T10:47:42.273Z,14.13
2018-04-29T10:50:10.550Z,17.53
2018-04-29T10:52:38.090Z,17.23
2018-04-29T10:55:05.619Z,17.97
2018-04-29T10:57:33.142Z,24.57
2018-04-29T11:00:01.427Z,18.30
2018-04-29T11:02:29.114Z,16.47
2018-04-29T11:04:56.637Z,26.43
2018-04-29T11:07:24.150Z,18.23
2018-04-29T11:09:51.676Z,13.73
2018-04-29T11:12:19.285Z,22.37
2018-04-29T11:14:46.804Z,17.57
2018-04-29T11:17:14.446Z,18.50
2018-04-29T11:19:41.974Z,12.70
2018-04-29T11:22:09.782Z,29.07
2018-04-29T11:24:37.242Z,17.93
2018-04-29T11:27:04.930Z,22.40
2018-04-29T11:29:32.450Z,25.17
2018-04-29T11:32:00.149Z,15.47
2018-04-29T11:34:27.684Z,21.67
2018-04-29T11:36:55.190Z,17.83
2018-04-29T11:39:22.817Z,15.50
2018-04-29T11:41:50.331Z,17.70
2018-04-29T11:44:17.836Z,29.90
2018-04-29T11:46:45.346Z,18.33
2018-04-29T11:49:13.640Z,19.30
2018-04-29T11:51:41.209Z,16.87
2018-04-29T11:54:08.730Z,17.23
2018-04-29T11:56:36.557Z,21.87
2018-04-29T11:59:04.352Z,23.13
2018-04-29T12:01:32.630Z,20.80
2018-04-29T12:04:00.933Z,18.87
2018-04-29T12:06:28.504Z,29.03
2018-04-29T12:08:56.023Z,16.53
2018-04-29T12:11:23.750Z,17.60
2018-04-29T12:13:51.282Z,13.77
2018-04-29T12:16:19.570Z,17.53
2018-04-29T12:18:47.077Z,16.60
2018-04-29T12:21:15.511Z,18.50
2018-04-29T12:23:43.022Z,11.50
2018-04-29T12:26:11.306Z,19.27
2018-04-29T12:28:38.821Z,13.67
2018-04-29T12:31:06.480Z,16.47
2018-04-29T12:33:34.023Z,13.70
2018-04-29T12:36:02.080Z,14.73
2018-04-29T12:38:29.761Z,16.73
2018-04-29T12:40:57.270Z,20.10
2018-04-29T12:43:25.635Z,14.03
2018-04-29T12:45:53.150Z,25.33
2018-04-29T12:48:20.822Z,16.97
2018-04-29T12:50:48.338Z,17.20
2018-04-29T12:53:16.009Z,20.20
2018-04-29T12:55:44.401Z,14.03
2018-04-29T12:58:12.057Z,22.63
2018-04-29T13:00:39.620Z,17.60
2018-04-29T13:03:07.162Z,16.63
2018-04-29T13:05:34.936Z,24.67
2018-04-29T13:08:02.534Z,20.33
2018-04-29T13:10:30.054Z,20.37
2018-04-29T13:12:57.564Z,18.40
2018-04-29T13:15:25.903Z,14.10
2018-04-29T13:17:53.676Z,12.17
2018-04-29T13:20:21.189Z,18.50
2018-04-29T13:22:48.707Z,21.30
2018-04-29T13:25:16.361Z,26.43
2018-04-29T13:27:43.886Z,24.20
2018-04-29T13:30:11.398Z,17.47
2018-04-29T13:32:39.677Z,17.57
2018-04-29T13:35:07.417Z,14.00
2018-04-29T13:37:36.433Z,12.80
2018-04-29T13:40:04.341Z,18.00
2018-04-29T13:42:31.942Z,15.70
2018-04-29T13:44:59.466Z,22.73
2018-04-29T13:47:26.976Z,16.70
2018-04-29T13:49:55.195Z,25.63
2018-04-29T13:52:22.920Z,18.70
2018-04-29T13:54:50.343Z,18.13
2018-04-29T13:57:17.893Z,21.30
2018-04-29T13:59:45.406Z,15.43
2018-04-29T14:02:12.984Z,12.17
2018-04-29T14:04:40.546Z,28.20
2018-04-29T14:07:08.370Z,20.63
2018-04-29T14:09:35.868Z,16.80
2018-04-29T14:12:03.366Z,15.23
2018-04-29T14:14:31.011Z,21.63
2018-04-29T14:16:58.770Z,29.37
2018-04-29T14:19:26.294Z,28.10
2018-04-29T14:21:53.809Z,23.03
2018-04-29T14:24:21.315Z,17.60
2018-04-29T14:26:48.940Z,20.03
2018-04-29T14:29:16.584Z,20.43
2018-04-29T14:31:44.104Z,19.30
2018-04-29T14:34:12.681Z,20.20
2018-04-29T14:36:40.241Z,48.53
2018-04-29T14:39:07.703Z,17.33
2018-04-29T14:41:35.216Z,20.53
2018-04-29T14:44:02.726Z,23.40
2018-04-29T14:46:30.395Z,19.97
2018-04-29T14:48:57.908Z,21.97
2018-04-29T14:51:26.218Z,14.33
2018-04-29T14:53:53.932Z,18.23
2018-04-29T14:56:21.446Z,24.13
2018-04-29T14:58:49.222Z,18.90
2018-04-29T15:01:16.741Z,20.43
2018-04-29T15:03:44.420Z,16.93
2018-04-29T15:06:11.943Z,20.47
2018-04-29T15:08:39.475Z,19.33
2018-04-29T15:11:07.964Z,26.83
2018-04-29T15:13:36.242Z,22.37
2018-04-29T15:16:05.263Z,22.87
2018-04-29T15:18:44.463Z,24.50
2018-04-29T15:21:13.090Z,22.03
2018-04-29T15:23:40.590Z,19.80
2018-04-29T15:26:08.561Z,23.10
2018-04-29T15:28:36.765Z,22.00
2018-04-29T15:31:04.290Z,27.80
2018-04-29T15:33:31.811Z,29.00
2018-04-29T15:35:59.334Z,23.43
2018-04-29T15:38:27.605Z,24.90
2018-04-29T15:40:55.325Z,26.83
2018-04-29T15:43:22.837Z,27.63
2018-04-29T15:45:52.714Z,25.03
2018-04-29T15:48:20.231Z,27.33
2018-04-29T15:50:47.741Z,52.13
2018-04-29T15:53:15.254Z,33.03
2018-04-29T15:55:42.834Z,33.00
2018-04-29T15:58:11.333Z,40.50
2018-04-29T16:00:38.748Z,32.97
2018-04-29T16:03:07.055Z,24.90
2018-04-29T16:05:34.594Z,51.47
2018-04-29T16:08:02.278Z,32.93
2018-04-29T16:10:29.803Z,25.50
2018-04-29T16:12:57.489Z,33.27
2018-04-29T16:15:25.010Z,27.37
2018-04-29T16:17:52.580Z,25.87
2018-04-29T16:20:20.248Z,25.63
2018-04-29T16:22:47.942Z,38.90
2018-04-29T16:25:15.459Z,24.97
2018-04-29T16:27:43.146Z,28.30
2018-04-29T16:30:10.921Z,21.03
2018-04-29T16:32:38.450Z,25.67
2018-04-29T16:35:05.957Z,27.30
2018-04-29T16:37:33.700Z,34.23
2018-04-29T16:40:01.352Z,24.33
2018-04-29T16:42:28.885Z,23.30
2018-04-29T16:44:56.709Z,23.57
2018-04-29T16:47:25.000Z,46.33
2018-04-29T16:49:52.713Z,24.23
2018-04-29T16:52:20.289Z,56.17
2018-04-29T16:54:47.930Z,42.80
2018-04-29T16:57:15.450Z,31.47
2018-04-29T16:59:43.121Z,26.53
2018-04-29T17:02:10.634Z,38.60
2018-04-29T17:04:38.995Z,33.10
2018-04-29T17:07:06.515Z,33.77
2018-04-29T17:09:34.291Z,34.57
2018-04-29T17:12:01.982Z,39.37
2018-04-29T17:14:29.486Z,34.47
2018-04-29T17:16:57.041Z,43.53
2018-04-29T17:19:25.326Z,34.40
2018-04-29T17:21:53.022Z,39.83
2018-04-29T17:24:20.533Z,39.80
2018-04-29T17:26:48.056Z,40.70
2018-04-29T17:29:16.771Z,39.77
2018-04-29T17:31:44.200Z,40.40
2018-04-29T17:34:11.843Z,39.47
2018-04-29T17:36:39.355Z,35.67
2018-04-29T17:39:07.061Z,44.60
2018-04-29T17:41:34.829Z,42.93
2018-04-29T17:44:02.360Z,48.87
2018-04-29T17:46:29.866Z,38.13
2018-04-29T17:48:57.376Z,32.63
2018-04-29T17:51:24.894Z,44.13
2018-04-29T17:53:52.413Z,41.23
2018-04-29T17:56:19.933Z,36.77
2018-04-29T17:58:47.650Z,45.33
2018-04-29T18:01:15.419Z,45.27
2018-04-29T18:03:42.933Z,39.37
2018-04-29T18:06:10.443Z,40.10
2018-04-29T18:08:38.091Z,40.50
2018-04-29T18:11:05.842Z,44.70
2018-04-29T18:13:33.608Z,38.83
2018-04-29T18:16:01.122Z,46.93
2018-04-29T18:18:28.797Z,48.30
2018-04-29T18:20:56.329Z,42.90
2018-04-29T18:23:24.233Z,51.87
2018-04-29T18:25:52.238Z,43.03
2018-04-29T18:28:19.859Z,41.97
2018-04-29T18:30:47.369Z,43.60
2018-04-29T18:33:15.669Z,56.33
2018-04-29T18:35:43.194Z,44.03
2018-04-29T18:38:10.701Z,43.83
2018-04-29T18:40:38.237Z,49.87
2018-04-29T18:43:06.823Z,44.30
2018-04-29T18:45:34.814Z,51.80
2018-04-29T18:48:02.330Z,82.67
2018-04-29T18:50:30.093Z,46.70
2018-04-29T18:52:57.584Z,37.23
2018-04-29T18:55:25.277Z,45.80
2018-04-29T18:57:53.121Z,42.50
2018-04-29T19:00:20.620Z,41.30
2018-04-29T19:02:48.159Z,39.27
2018-04-29T19:05:15.662Z,53.23
2018-04-29T19:07:43.202Z,46.20
2018-04-29T19:10:10.946Z,49.30
2018-04-29T19:12:38.706Z,42.47
2018-04-29T19:15:06.251Z,56.00
2018-04-29T19:17:33.902Z,49.37
2018-04-29T19:20:01.418Z,43.37
2018-04-29T19:22:29.144Z,46.90
2018-04-29T19:24:56.662Z,44.43
2018-04-29T19:27:24.348Z,42.10
2018-04-29T19:29:52.140Z,35.77
2018-04-29T19:32:19.649Z,36.13
2018-04-29T19:34:47.348Z,39.40
2018-04-29T19:37:15.119Z,44.80
2018-04-29T19:39:42.638Z,45.77
2018-04-29T19:42:10.815Z,38.30
2018-04-29T19:44:38.369Z,46.33
2018-04-29T19:47:06.394Z,41.70
2018-04-29T19:49:33.954Z,47.00
2018-04-29T19:52:01.693Z,43.80
2018-04-29T19:54:29.194Z,46.60
2018-04-29T19:56:57.705Z,41.03
2018-04-29T19:59:25.202Z,42.07
2018-04-29T20:01:52.722Z,39.17
2018-04-29T20:04:20.242Z,46.13
2018-04-29T20:06:47.954Z,46.30
2018-04-29T20:09:15.739Z,42.00
2018-04-29T20:11:43.242Z,44.67
2018-04-29T20:14:11.474Z,37.43
2018-04-29T20:16:39.039Z,39.90
2018-04-29T20:19:06.803Z,57.47
2018-04-29T20:21:34.320Z,52.33
2018-04-29T20:24:01.966Z,40.40
2018-04-29T20:26:29.489Z,41.67
2018-04-29T20:28:57.465Z,43.13
2018-04-29T20:31:24.999Z,46.27
2018-04-29T20:33:52.502Z,47.80
2018-04-29T20:36:20.206Z,37.70
2018-04-29T20:38:47.741Z,43.47
2018-04-29T20:41:15.263Z,45.80
2018-04-29T20:43:43.560Z,43.50
2018-04-29T20:46:11.326Z,46.90
2018-04-29T20:48:39.026Z,46.93
2018-04-29T20:51:06.786Z,41.27
2018-04-29T20:53:34.406Z,47.70
2018-04-29T20:56:02.126Z,45.30
2018-04-29T20:58:29.750Z,42.57
2018-04-29T21:00:57.287Z,46.00
2018-04-29T21:03:24.803Z,47.23
2018-04-29T21:05:52.318Z,40.40
2018-04-29T21:08:19.935Z,44.20
2018-04-29T21:10:48.016Z,42.87
2018-04-29T21:13:15.650Z,46.20
2018-04-29T21:15:43.250Z,46.70
2018-04-29T21:18:10.973Z,43.93
2018-04-29T21:20:38.498Z,50.33
2018-04-29T21:23:06.793Z,42.87
2018-04-29T21:25:34.899Z,46.60
2018-04-29T21:28:03.165Z,38.40
2018-04-29T21:30:30.787Z,36.87
2018-04-29T21:32:58.764Z,44.80
2018-04-29T21:35:26.439Z,44.57
2018-04-29T21:37:54.802Z,47.97
2018-04-29T21:40:22.289Z,42.37
2018-04-29T21:42:50.018Z,45.07
2018-04-29T21:45:19.451Z,45.00
2018-04-29T21:47:47.618Z,41.37
2018-04-29T21:50:17.581Z,43.40
2018-04-29T21:52:45.846Z,50.53
2018-04-29T21:55:13.756Z,45.30
2018-04-29T21:57:41.460Z,37.30
2018-04-29T22:00:10.692Z,37.23
2018-04-29T22:02:38.335Z,41.37
2018-04-29T22:05:06.819Z,41.73
2018-04-29T22:07:37.122Z,39.13
2018-04-29T22:10:06.670Z,40.90
2018-04-29T22:12:34.986Z,44.67
2018-04-29T22:15:02.750Z,38.87
2018-04-29T22:17:30.405Z,41.03
2018-04-29T22:19:59.035Z,39.33
2018-04-29T22:22:27.748Z,36.17
2018-04-29T22:24:59.188Z,32.93
2018-04-29T22:27:29.970Z,36.63
2018-04-29T22:29:57.950Z,33.00
2018-04-29T22:32:27.400Z,35.60
2018-04-29T22:34:55.792Z,41.30
2018-04-29T22:37:26.282Z,41.17
2018-04-29T22:39:53.798Z,39.13
2018-04-29T22:42:21.303Z,29.97
2018-04-29T22:44:50.104Z,35.97
2018-04-29T22:47:17.601Z,29.07
2018-04-29T22:49:45.127Z,32.60
2018-04-29T22:52:16.620Z,32.20
2018-04-29T22:54:49.094Z,35.93
2018-04-29T22:57:16.803Z,28.33
2018-04-29T22:59:45.128Z,24.50
2018-04-29T23:02:14.744Z,29.37
2018-04-29T23:04:42.274Z,30.50
2018-04-29T23:07:09.783Z,32.00
2018-04-29T23:09:40.488Z,34.23
2018-04-29T23:12:08.000Z,34.20
2018-04-29T23:14:35.811Z,29.87
2018-04-29T23:17:06.687Z,28.37
2018-04-29T23:19:34.472Z,31.97
2018-04-29T23:22:01.986Z,34.70
2018-04-29T23:24:30.269Z,28.13
2018-04-29T23:26:57.795Z,31.47
2018-04-29T23:29:25.430Z,30.73
2018-04-29T23:31:53.205Z,29.63
2018-04-29T23:34:21.145Z,28.90
2018-04-29T23:36:48.756Z,25.73
2018-04-29T23:39:16.498Z,28.13
2018-04-29T23:41:44.255Z,24.23
2018-04-29T23:44:11.778Z,28.03
2018-04-29T23:46:39.302Z,22.30
2018-04-29T23:49:06.827Z,23.73
2018-04-29T23:51:34.396Z,33.23
2018-04-29T23:54:01.910Z,20.57
2018-04-29T23:56:29.422Z,21.90
2018-04-29T23:58:56.942Z,22.27
